Time;durP1;ratioP1;P1;durP2;ratioP2;P2;SDS_P1;SDS_P2;PMS_P1;PMS_P2;Temp;Humidity;BMP_temperature;BMP_pressure;BME280_temperature;BME280_humidity;BME280_pressure;Samples;Min_cycle;Max_cycle;Signal;HPM_P1;HPM_P2
2022/08/12 00:44:08;;;;;;;9.38;3.90;;;26.80;63.30;;;;;;5035957;28;20095;-74
2022/08/12 00:46:45;;;;;;;13.10;4.30;;;26.80;63.10;;;;;;5035730;28;20025;-73
2022/08/12 00:49:12;;;;;;;12.05;4.55;;;26.80;63.40;;;;;;5035601;28;20379;-73
2022/08/12 00:54:24;;;;;;;8.00;4.40;;;26.70;63.70;;;;;;5035433;28;20087;-74
2022/08/12 00:56:52;;;;;;;9.10;4.80;;;26.80;63.90;;;;;;5035307;28;20025;-74
2022/08/12 00:59:18;;;;;;;7.95;4.35;;;26.80;64.00;;;;;;5035571;28;20060;-74
2022/08/12 01:01:46;;;;;;;7.80;4.80;;;26.70;64.40;;;;;;5035767;28;20021;-72
2022/08/12 01:12:37;;;;;;;6.85;4.70;;;26.60;65.10;;;;;;5035637;28;20037;-74
2022/08/12 01:15:04;;;;;;;8.65;5.30;;;26.50;65.10;;;;;;5035238;28;20022;-74
2022/08/12 01:17:30;;;;;;;11.02;5.03;;;26.50;65.60;;;;;;5035545;28;20028;-73
2022/08/12 01:20:03;;;;;;;9.88;4.85;;;26.50;65.70;;;;;;5035637;28;20073;-75
2022/08/12 01:22:34;;;;;;;7.43;5.07;;;26.50;65.70;;;;;;5035311;28;20026;-73
2022/08/12 01:25:06;;;;;;;8.50;5.00;;;26.50;66.10;;;;;;5033633;28;20065;-74
2022/08/12 01:27:33;;;;;;;10.13;4.90;;;26.50;65.70;;;;;;5035313;28;20049;-73
2022/08/12 01:30:03;;;;;;;11.73;5.38;;;26.50;66.00;;;;;;5035206;28;20493;-74
2022/08/12 01:32:36;;;;;;;10.73;5.18;;;26.50;66.00;;;;;;5034949;28;20033;-73
2022/08/12 01:35:13;;;;;;;8.00;4.17;;;26.40;66.10;;;;;;5034971;28;20021;-73
2022/08/12 01:37:55;;;;;;;8.27;4.70;;;26.40;66.40;;;;;;5034858;28;20267;-74
2022/08/12 01:40:30;;;;;;;8.10;4.13;;;26.30;66.50;;;;;;5035104;28;20516;-75
2022/08/12 01:43:20;;;;;;;6.57;4.40;;;26.30;66.50;;;;;;5033801;28;20382;-73
2022/08/12 01:46:06;;;;;;;6.97;4.53;;;26.20;66.30;;;;;;5035531;28;20018;-73
2022/08/12 01:48:58;;;;;;;10.85;6.13;;;26.20;66.00;;;;;;5041533;28;20039;-74
2022/08/12 01:51:42;;;;;;;10.13;5.95;;;26.10;66.20;;;;;;5052294;28;20087;-72
2022/08/12 01:54:12;;;;;;;8.40;5.60;;;25.90;66.20;;;;;;5039110;28;20025;-74
2022/08/12 01:57:01;;;;;;;10.23;5.38;;;25.80;66.50;;;;;;5034625;28;20021;-72
2022/08/12 01:59:49;;;;;;;12.60;5.85;;;25.70;66.80;;;;;;5033993;28;20061;-74
2022/08/12 02:02:23;;;;;;;9.52;5.22;;;25.60;67.00;;;;;;5034367;28;20057;-74
2022/08/12 02:11:21;;;;;;;9.25;5.20;;;25.50;67.30;;;;;;5034819;28;20485;-73
2022/08/12 02:14:05;;;;;;;7.30;4.65;;;25.50;67.70;;;;;;5015527;28;20471;-74
2022/08/12 02:16:56;;;;;;;7.97;4.88;;;25.40;67.50;;;;;;5033087;28;20045;-74
2022/08/12 02:19:45;;;;;;;8.95;5.07;;;25.50;67.80;;;;;;5033659;28;20044;-74
2022/08/12 02:22:37;;;;;;;6.60;4.60;;;25.40;67.60;;;;;;5033838;28;20021;-74
2022/08/12 02:25:11;;;;;;;10.30;4.80;;;25.50;67.60;;;;;;5033178;28;20040;-75
2022/08/12 02:27:40;;;;;;;8.40;5.30;;;25.50;68.10;;;;;;5033741;28;20104;-74
2022/08/12 02:30:08;;;;;;;8.10;4.70;;;25.50;68.20;;;;;;5032405;28;20059;-74
2022/08/12 02:32:39;;;;;;;9.10;5.03;;;25.50;68.10;;;;;;5033927;28;20025;-73
2022/08/12 02:35:13;;;;;;;7.82;5.20;;;25.50;68.10;;;;;;5032551;28;20491;-74
2022/08/12 02:37:40;;;;;;;10.73;5.20;;;25.60;68.10;;;;;;5032321;28;20355;-73
2022/08/12 02:40:07;;;;;;;9.82;5.40;;;25.50;68.00;;;;;;5033847;28;20033;-73
2022/08/12 02:42:34;;;;;;;8.27;5.20;;;25.50;68.00;;;;;;5033449;28;20030;-73
2022/08/12 02:45:05;;;;;;;13.27;5.45;;;25.50;68.00;;;;;;5033354;28;20025;-73
2022/08/12 02:47:38;;;;;;;11.10;5.30;;;25.60;68.00;;;;;;5033491;28;20025;-74
2022/08/12 02:50:05;;;;;;;8.38;5.75;;;25.60;67.90;;;;;;5033623;28;20025;-74
2022/08/12 02:52:33;;;;;;;11.80;5.43;;;25.50;68.10;;;;;;5048768;28;20414;-73
2022/08/12 02:55:11;;;;;;;8.90;5.50;;;25.50;68.20;;;;;;5033203;28;20352;-74
2022/08/12 02:57:40;;;;;;;11.27;5.53;;;25.50;68.40;;;;;;5031984;28;20131;-74
2022/08/12 03:00:07;;;;;;;8.63;5.35;;;25.40;68.30;;;;;;5033409;28;20022;-75
2022/08/12 03:02:34;;;;;;;8.68;5.43;;;25.40;68.30;;;;;;5033286;28;20029;-73
2022/08/12 03:05:02;;;;;;;9.05;5.38;;;25.30;68.40;;;;;;5031819;28;20049;-71
2022/08/12 03:07:40;;;;;;;7.65;5.60;;;25.30;68.40;;;;;;5033258;28;20026;-73
2022/08/12 03:10:09;;;;;;;9.52;4.97;;;25.20;68.60;;;;;;5033439;28;20053;-74
2022/08/12 03:12:42;;;;;;;9.23;5.70;;;25.20;68.70;;;;;;5031872;28;20056;-73
2022/08/12 03:15:14;;;;;;;11.27;5.60;;;25.20;68.70;;;;;;5033004;28;20036;-75
2022/08/12 03:17:42;;;;;;;8.10;5.05;;;25.20;68.90;;;;;;5031922;28;20112;-74
2022/08/12 03:20:10;;;;;;;8.15;5.40;;;25.20;68.60;;;;;;5033318;28;20044;-74
2022/08/12 03:22:40;;;;;;;9.90;5.53;;;25.20;68.70;;;;;;5032841;28;20061;-74
2022/08/12 03:25:16;;;;;;;7.68;5.32;;;25.10;68.90;;;;;;5033150;28;20029;-74
2022/08/12 03:27:48;;;;;;;10.05;5.35;;;25.00;69.00;;;;;;5032977;28;20037;-74
2022/08/12 03:30:17;;;;;;;8.40;4.60;;;25.00;69.00;;;;;;5031630;28;20139;-74
2022/08/12 03:32:47;;;;;;;7.63;4.45;;;24.90;69.30;;;;;;5033065;28;20033;-74
2022/08/12 03:35:20;;;;;;;6.55;4.10;;;24.80;69.40;;;;;;5031971;28;20022;-74
2022/08/12 03:37:48;;;;;;;6.85;4.10;;;24.80;69.70;;;;;;5035468;28;20352;-74
2022/08/12 03:41:33;;;;;;;6.30;3.50;;;24.70;69.40;;;;;;5037065;28;20030;-74
2022/08/12 04:02:20;;;;;;;6.90;3.40;;;24.60;65.80;;;;;;5036104;28;20037;-78
2022/08/12 04:04:46;;;;;;;6.22;3.20;;;24.60;66.10;;;;;;5036169;28;20483;-76
2022/08/12 04:07:14;;;;;;;5.82;3.00;;;24.50;65.90;;;;;;5016327;28;20049;-75
2022/08/12 04:09:43;;;;;;;4.97;3.05;;;24.50;65.70;;;;;;5017539;28;20095;-76
2022/08/12 04:14:56;;;;;;;6.00;2.80;;;24.50;65.30;;;;;;5017122;28;20117;-74
2022/08/12 04:17:22;;;;;;;7.57;2.78;;;24.40;64.90;;;;;;5016049;28;20034;-77
2022/08/12 04:19:48;;;;;;;8.70;2.72;;;24.30;64.60;;;;;;5016105;28;20085;-77
2022/08/12 04:22:14;;;;;;;8.93;3.00;;;24.30;64.70;;;;;;5016038;28;20022;-77
2022/08/12 04:24:40;;;;;;;4.78;2.97;;;24.20;64.70;;;;;;5015879;28;20044;-77
2022/08/12 04:27:09;;;;;;;4.68;2.63;;;24.20;64.60;;;;;;5015800;28;20029;-73
2022/08/12 04:29:37;;;;;;;5.60;2.63;;;24.20;64.20;;;;;;5015808;28;20042;-72
2022/08/12 04:32:05;;;;;;;12.63;2.83;;;24.30;64.10;;;;;;5015811;28;20045;-74
2022/08/12 04:34:31;;;;;;;9.25;2.88;;;24.30;64.20;;;;;;5015686;28;20439;-73
2022/08/12 04:36:57;;;;;;;6.38;3.03;;;24.40;64.00;;;;;;5015514;28;20133;-73
2022/08/12 04:39:25;;;;;;;5.90;2.85;;;24.40;63.70;;;;;;5030644;28;20046;-73
2022/08/12 04:41:51;;;;;;;5.95;2.95;;;24.50;63.50;;;;;;5015427;28;20506;-75
2022/08/12 04:44:17;;;;;;;5.30;2.70;;;24.50;63.30;;;;;;5015368;28;20034;-74
2022/08/12 04:46:43;;;;;;;6.45;3.03;;;24.50;62.70;;;;;;5015192;28;20093;-72
2022/08/12 04:49:09;;;;;;;6.93;2.50;;;24.60;62.70;;;;;;5014724;28;20026;-73
2022/08/12 04:51:35;;;;;;;8.75;2.88;;;24.70;62.20;;;;;;5015079;28;20040;-75
2022/08/12 04:54:04;;;;;;;8.20;2.90;;;24.60;62.00;;;;;;5015004;28;20017;-73
2022/08/12 04:56:32;;;;;;;8.50;2.85;;;24.70;61.90;;;;;;5015153;28;20045;-73
2022/08/12 04:58:59;;;;;;;8.43;2.85;;;24.70;61.90;;;;;;5015569;28;20120;-72
2022/08/12 05:01:31;;;;;;;5.25;2.85;;;24.70;61.70;;;;;;5014279;28;20054;-73
2022/08/12 05:04:01;;;;;;;5.18;2.55;;;24.70;61.30;;;;;;5015702;28;20049;-73
2022/08/12 05:06:27;;;;;;;6.05;2.63;;;24.70;61.10;;;;;;5015474;28;20030;-74
2022/08/12 05:08:59;;;;;;;8.30;3.10;;;24.70;61.00;;;;;;5015478;28;20501;-74
2022/08/12 05:11:25;;;;;;;8.25;3.38;;;24.80;60.70;;;;;;5030645;28;20028;-77
2022/08/12 05:13:59;;;;;;;5.00;2.90;;;24.80;60.30;;;;;;5015796;28;20030;-76
2022/08/12 05:16:29;;;;;;;5.15;2.40;;;24.90;59.80;;;;;;5015343;28;20041;-73
2022/08/12 05:18:54;;;;;;;9.60;2.80;;;24.90;59.40;;;;;;5015637;28;20037;-72
2022/08/12 05:21:20;;;;;;;8.68;2.88;;;25.00;59.60;;;;;;5015570;28;20030;-75
2022/08/12 05:23:46;;;;;;;7.70;2.92;;;25.00;59.20;;;;;;5015745;28;20028;-76
2022/08/12 05:26:12;;;;;;;5.75;2.53;;;25.00;59.30;;;;;;5013463;28;20125;-76
2022/08/12 05:28:38;;;;;;;7.82;2.90;;;25.00;59.20;;;;;;5015024;28;20022;-76
2022/08/12 05:31:04;;;;;;;6.47;2.38;;;25.00;59.30;;;;;;5015037;28;20438;-75
2022/08/12 05:33:38;;;;;;;5.82;2.70;;;25.00;59.40;;;;;;5014861;28;20068;-73
2022/08/12 05:36:11;;;;;;;9.27;3.00;;;24.90;59.50;;;;;;5014533;28;20026;-74
2022/08/12 05:38:56;;;;;;;6.97;2.97;;;25.00;59.80;;;;;;5014681;28;20068;-76
2022/08/12 05:41:33;;;;;;;8.77;2.90;;;25.00;59.80;;;;;;5014686;28;20681;-77
2022/08/12 05:44:02;;;;;;;5.43;2.97;;;25.00;60.00;;;;;;5029665;28;20091;-75
2022/08/12 05:46:29;;;;;;;8.52;3.22;;;25.10;60.00;;;;;;5014521;28;20117;-75
2022/08/12 05:48:57;;;;;;;8.88;3.03;;;25.00;59.90;;;;;;5014536;28;20026;-77
2022/08/12 05:51:24;;;;;;;8.88;3.00;;;25.00;60.10;;;;;;5014940;28;20026;-75
2022/08/12 05:53:55;;;;;;;5.72;2.78;;;25.20;60.00;;;;;;5014594;28;20153;-77
2022/08/12 05:56:24;;;;;;;4.40;2.65;;;25.10;59.70;;;;;;5014297;28;20042;-77
2022/08/12 05:58:51;;;;;;;6.97;2.75;;;25.20;60.00;;;;;;5013540;28;20376;-78
2022/08/12 06:01:18;;;;;;;6.80;2.90;;;25.20;59.80;;;;;;5013260;28;20527;-74
2022/08/12 06:03:44;;;;;;;8.60;2.90;;;25.30;59.70;;;;;;5013875;28;20053;-76
2022/08/12 06:06:10;;;;;;;6.22;3.00;;;25.40;59.40;;;;;;5013587;28;20095;-78
2022/08/12 06:08:37;;;;;;;10.48;3.00;;;25.70;59.30;;;;;;5013735;28;20490;-76
2022/08/12 06:11:05;;;;;;;6.15;3.05;;;25.90;58.70;;;;;;5013595;28;20026;-76
2022/08/12 06:13:37;;;;;;;9.40;3.20;;;25.90;58.50;;;;;;5013521;28;20038;-77
2022/08/12 06:16:05;;;;;;;10.40;3.40;;;26.10;57.70;;;;;;5013240;28;20460;-76
2022/08/12 06:18:30;;;;;;;10.68;3.53;;;26.30;58.10;;;;;;5013553;28;20037;-75
2022/08/12 06:20:59;;;;;;;6.53;3.20;;;26.40;57.70;;;;;;5013207;28;20452;-77
2022/08/12 06:23:27;;;;;;;7.43;3.03;;;26.30;57.50;;;;;;5012132;28;20105;-76
2022/08/12 06:25:57;;;;;;;9.93;3.30;;;26.30;58.10;;;;;;5028218;28;20034;-77
2022/08/12 06:28:23;;;;;;;7.50;3.33;;;26.30;58.40;;;;;;5013252;28;20030;-76
2022/08/12 06:30:50;;;;;;;7.43;3.35;;;26.10;58.70;;;;;;5013143;28;20390;-74
2022/08/12 06:33:17;;;;;;;8.60;3.42;;;25.90;59.20;;;;;;5013199;28;20383;-73
2022/08/12 06:35:43;;;;;;;8.68;3.67;;;25.90;59.60;;;;;;5013184;28;20022;-76
2022/08/12 06:38:20;;;;;;;7.53;3.33;;;25.90;59.80;;;;;;5013131;28;20030;-77
2022/08/12 06:43:32;;;;;;;10.52;3.67;;;26.50;59.10;;;;;;5013100;28;20091;-76
2022/08/12 06:45:58;;;;;;;15.00;3.78;;;26.90;58.50;;;;;;5012855;28;20037;-74
2022/08/12 06:48:28;;;;;;;12.63;3.85;;;27.10;58.20;;;;;;5013279;28;20154;-75
2022/08/12 06:50:55;;;;;;;6.00;3.50;;;27.20;57.70;;;;;;5013030;28;20022;-75
2022/08/12 06:53:23;;;;;;;7.35;3.45;;;27.20;57.90;;;;;;5013244;28;20095;-74
2022/08/12 06:55:49;;;;;;;11.55;4.43;;;27.30;57.90;;;;;;5013141;28;20128;-73
2022/08/12 06:58:16;;;;;;;12.15;4.07;;;27.20;57.80;;;;;;5013173;28;20026;-75
2022/08/12 07:00:42;;;;;;;10.10;4.25;;;27.30;57.70;;;;;;5012956;28;20137;-75
2022/08/12 07:03:09;;;;;;;13.10;4.07;;;27.40;57.70;;;;;;5013242;28;20050;-76
2022/08/12 07:05:35;;;;;;;15.02;4.28;;;27.40;57.70;;;;;;5013274;28;20119;-72
2022/08/12 07:08:01;;;;;;;9.70;3.72;;;27.40;57.70;;;;;;5013440;28;20030;-77
2022/08/12 07:10:27;;;;;;;13.50;4.45;;;27.50;57.50;;;;;;5012770;28;20123;-76
2022/08/12 07:12:53;;;;;;;17.02;4.22;;;27.50;57.60;;;;;;5012440;28;20084;-76
2022/08/12 07:15:24;;;;;;;8.50;3.85;;;27.60;57.60;;;;;;5012817;28;20050;-76
2022/08/12 07:18:05;;;;;;;8.23;3.72;;;27.60;57.70;;;;;;5012677;28;20029;-75
2022/08/12 07:20:34;;;;;;;9.98;3.85;;;27.80;57.30;;;;;;5012584;28;20538;-75
2022/08/12 07:23:03;;;;;;;9.13;3.78;;;27.80;57.20;;;;;;5012623;28;20028;-76
2022/08/12 07:25:33;;;;;;;11.07;3.80;;;27.80;57.10;;;;;;5012355;28;20351;-77
2022/08/12 07:28:02;;;;;;;12.02;4.18;;;27.90;57.30;;;;;;5012547;28;20427;-76
2022/08/12 07:30:33;;;;;;;6.97;3.65;;;27.90;57.30;;;;;;5012450;28;20534;-76
2022/08/12 07:33:03;;;;;;;10.57;4.30;;;28.00;56.50;;;;;;5012379;28;20032;-76
2022/08/12 07:35:30;;;;;;;11.13;4.03;;;27.90;57.30;;;;;;5012318;28;20033;-76
2022/08/12 07:37:56;;;;;;;10.95;3.97;;;27.90;57.20;;;;;;5027292;28;20026;-77
2022/08/12 07:40:24;;;;;;;17.08;4.45;;;27.90;57.10;;;;;;5012889;28;20092;-76
2022/08/12 07:42:50;;;;;;;11.55;3.88;;;28.00;57.20;;;;;;5012602;28;20026;-76
2022/08/12 07:45:16;;;;;;;11.50;4.07;;;28.00;57.00;;;;;;5012187;28;20029;-77
2022/08/12 07:47:42;;;;;;;9.05;4.05;;;28.10;57.00;;;;;;5012023;28;20053;-77
2022/08/12 07:50:10;;;;;;;10.85;3.70;;;28.10;56.60;;;;;;5012169;28;20471;-76
2022/08/12 07:52:38;;;;;;;9.20;3.65;;;28.20;56.60;;;;;;5012349;28;20022;-77
2022/08/12 07:55:05;;;;;;;10.85;4.00;;;28.30;56.40;;;;;;5012633;28;20034;-76
2022/08/12 07:57:33;;;;;;;8.50;3.55;;;28.40;56.00;;;;;;5012089;28;20395;-77
2022/08/12 08:00:04;;;;;;;11.50;4.22;;;28.50;55.50;;;;;;5012357;28;20033;-77
2022/08/12 08:02:35;;;;;;;17.67;4.90;;;28.70;55.90;;;;;;5012442;28;20040;-77
2022/08/12 08:05:02;;;;;;;9.05;3.83;;;28.70;55.80;;;;;;5012318;28;20030;-75
2022/08/12 08:07:29;;;;;;;10.23;3.97;;;28.90;55.80;;;;;;5013024;28;20030;-75
2022/08/12 08:09:58;;;;;;;12.30;4.57;;;29.00;55.20;;;;;;5012768;28;20034;-78
2022/08/12 08:15:13;;;;;;;11.05;4.03;;;29.00;55.20;;;;;;5012104;28;20088;-77
2022/08/12 08:17:40;;;;;;;8.95;4.43;;;29.00;55.40;;;;;;5011765;28;20018;-77
2022/08/12 08:20:09;;;;;;;8.68;3.97;;;29.00;55.10;;;;;;5012123;28;20065;-79
2022/08/12 08:22:37;;;;;;;10.15;4.53;;;29.10;54.90;;;;;;5012715;28;20058;-75
2022/08/12 08:25:05;;;;;;;8.65;3.92;;;29.10;54.90;;;;;;5015586;28;20459;-76
2022/08/12 08:27:51;;;;;;;9.25;4.30;;;29.10;54.60;;;;;;5015265;28;20383;-74
2022/08/12 08:30:16;;;;;;;9.75;3.53;;;29.10;54.20;;;;;;5015248;28;20459;-76
2022/08/12 08:32:42;;;;;;;10.20;4.00;;;29.00;54.40;;;;;;5015167;28;20076;-76
2022/08/12 08:35:10;;;;;;;9.55;4.20;;;29.00;54.10;;;;;;5015120;28;20079;-78
2022/08/12 08:37:36;;;;;;;8.05;4.57;;;29.00;54.00;;;;;;5015269;28;20113;-75
2022/08/12 08:42:49;;;;;;;7.90;3.67;;;29.00;53.80;;;;;;5015592;28;20069;-77
2022/08/12 08:45:15;;;;;;;8.00;3.95;;;29.00;53.80;;;;;;5015005;28;20014;-75
2022/08/12 08:47:45;;;;;;;6.82;3.97;;;29.00;53.70;;;;;;5015565;28;20030;-78
2022/08/12 08:50:15;;;;;;;9.52;4.10;;;29.00;53.80;;;;;;5015091;28;20471;-75
2022/08/12 08:52:45;;;;;;;12.93;4.18;;;29.00;53.70;;;;;;5014981;28;20084;-77
2022/08/12 08:55:12;;;;;;;8.38;4.22;;;29.10;53.60;;;;;;5014767;28;20034;-78
2022/08/12 08:57:49;;;;;;;25.15;4.97;;;29.10;53.50;;;;;;5014635;28;20038;-77
2022/08/12 09:00:17;;;;;;;9.00;4.00;;;29.20;53.20;;;;;;5014830;28;20395;-77
2022/08/12 09:02:44;;;;;;;8.27;4.30;;;29.30;53.10;;;;;;5014676;28;20488;-77
2022/08/12 09:05:10;;;;;;;7.90;4.18;;;29.30;53.30;;;;;;5014622;28;20029;-78
2022/08/12 09:07:47;;;;;;;7.60;4.10;;;29.30;53.30;;;;;;5014760;28;20116;-77
2022/08/12 09:10:18;;;;;;;7.55;4.22;;;29.30;53.20;;;;;;5015029;28;20026;-78
2022/08/12 09:15:34;;;;;;;8.18;3.90;;;29.20;51.80;;;;;;5014849;28;20049;-77
2022/08/12 09:18:01;;;;;;;8.82;3.90;;;29.20;53.30;;;;;;5014220;28;20088;-76
2022/08/12 09:20:34;;;;;;;10.02;4.13;;;29.40;53.00;;;;;;5012936;28;20042;-77
2022/08/12 09:23:02;;;;;;;7.10;3.78;;;29.50;52.70;;;;;;5014201;28;20097;-77
2022/08/12 09:25:32;;;;;;;12.13;4.28;;;29.60;52.50;;;;;;5014678;28;20420;-77
2022/08/12 09:27:58;;;;;;;8.98;4.00;;;29.70;52.00;;;;;;5014286;28;20014;-75
2022/08/12 09:30:25;;;;;;;8.80;4.35;;;29.70;52.00;;;;;;5014246;28;20541;-78
2022/08/12 09:32:52;;;;;;;6.55;4.18;;;29.70;51.90;;;;;;5013841;28;20378;-77
2022/08/12 09:35:24;;;;;;;5.68;3.90;;;29.80;50.40;;;;;;5013931;28;20033;-76
2022/08/12 09:37:54;;;;;;;8.38;3.92;;;29.80;51.40;;;;;;5014134;28;20029;-75
2022/08/12 09:40:22;;;;;;;8.52;3.75;;;29.90;50.00;;;;;;5013989;28;20120;-78
2022/08/12 09:45:50;;;;;;;7.90;4.05;;;29.80;51.00;;;;;;5046814;28;20112;-77
2022/08/12 09:48:16;;;;;;;7.57;4.03;;;29.80;51.30;;;;;;5013913;28;20109;-76
2022/08/12 09:50:44;;;;;;;8.45;4.15;;;29.80;50.90;;;;;;5013735;28;20431;-76
2022/08/12 09:53:23;;;;;;;6.72;3.92;;;29.90;51.20;;;;;;5013632;28;20121;-76
2022/08/12 09:55:53;;;;;;;7.40;3.72;;;29.90;49.60;;;;;;5013312;28;20034;-76
2022/08/12 09:58:27;;;;;;;7.80;3.65;;;29.90;51.20;;;;;;5013386;28;20022;-76
2022/08/12 10:00:55;;;;;;;11.35;4.00;;;30.00;50.70;;;;;;5013410;28;20088;-75
2022/08/12 10:03:25;;;;;;;6.90;3.70;;;29.90;50.40;;;;;;5013396;28;20421;-77
2022/08/12 10:05:51;;;;;;;7.15;3.15;;;30.00;50.50;;;;;;5013298;28;20018;-76
2022/08/12 10:08:18;;;;;;;6.80;3.58;;;30.10;50.10;;;;;;5013300;28;20056;-77
2022/08/12 10:13:40;;;;;;;11.73;4.20;;;30.20;49.20;;;;;;5013591;28;20121;-77
2022/08/12 10:16:10;;;;;;;9.20;3.75;;;30.30;48.90;;;;;;5028127;28;20080;-74
2022/08/12 10:18:37;;;;;;;4.80;3.30;;;30.40;48.20;;;;;;5012980;28;20117;-78
2022/08/12 10:21:05;;;;;;;13.18;3.53;;;30.40;48.60;;;;;;5013292;28;20129;-77
2022/08/12 10:23:31;;;;;;;6.35;3.50;;;30.50;48.60;;;;;;5013314;28;20026;-78
2022/08/12 10:31:25;;;;;;;6.88;3.55;;;31.00;46.90;;;;;;5013069;28;20080;-78
2022/08/12 10:33:51;;;;;;;6.97;3.63;;;31.10;46.60;;;;;;5013179;28;20089;-76
2022/08/12 10:36:16;;;;;;;9.77;3.92;;;31.30;46.50;;;;;;5013303;28;20036;-77
2022/08/12 10:38:42;;;;;;;7.95;4.03;;;31.40;46.20;;;;;;5013098;28;20061;-78
2022/08/12 10:43:52;;;;;;;7.28;3.40;;;31.40;45.90;;;;;;5012970;28;20040;-76
2022/08/12 10:46:17;;;;;;;11.23;3.58;;;31.50;46.50;;;;;;5012465;28;20026;-77
2022/08/12 10:48:47;;;;;;;5.78;3.20;;;31.40;46.20;;;;;;5012936;28;20022;-77
2022/08/12 10:51:17;;;;;;;6.85;3.38;;;31.30;45.90;;;;;;5012967;28;20029;-76
2022/08/12 10:53:45;;;;;;;7.45;3.70;;;31.20;45.90;;;;;;5012920;28;20538;-77
2022/08/12 10:56:10;;;;;;;12.15;4.07;;;31.10;46.10;;;;;;5013000;28;20089;-77
2022/08/12 10:58:39;;;;;;;6.22;3.30;;;31.10;46.10;;;;;;5012835;28;20020;-77
2022/08/12 11:01:09;;;;;;;4.90;3.08;;;31.10;46.10;;;;;;5013242;28;20111;-77
2022/08/12 11:03:38;;;;;;;9.68;3.80;;;31.10;46.20;;;;;;5012684;28;20065;-75
2022/08/12 11:06:09;;;;;;;5.10;3.10;;;31.20;46.10;;;;;;5012713;28;20018;-78
2022/08/12 11:08:38;;;;;;;8.63;3.60;;;31.20;45.50;;;;;;5012966;28;20113;-76
2022/08/12 11:11:06;;;;;;;9.85;3.60;;;31.30;45.50;;;;;;5012809;28;20471;-77
2022/08/12 11:13:35;;;;;;;6.90;3.60;;;31.40;45.10;;;;;;5012901;28;20034;-77
2022/08/12 11:16:02;;;;;;;6.97;3.40;;;31.40;45.00;;;;;;5012874;28;20383;-78
2022/08/12 11:18:28;;;;;;;5.78;3.30;;;31.60;44.70;;;;;;5012777;28;20026;-76
2022/08/12 11:20:54;;;;;;;7.55;3.22;;;31.70;44.50;;;;;;5012296;28;20036;-76
2022/08/12 11:23:21;;;;;;;8.00;4.65;;;31.90;44.30;;;;;;5013089;28;20022;-75
2022/08/12 11:25:48;;;;;;;11.88;4.20;;;32.00;44.10;;;;;;5012540;28;20386;-75
2022/08/12 11:28:14;;;;;;;10.60;3.55;;;32.20;43.80;;;;;;5012560;28;20062;-77
2022/08/12 11:30:40;;;;;;;7.65;3.53;;;32.30;43.40;;;;;;5027562;28;20037;-77
2022/08/12 11:33:07;;;;;;;7.20;3.47;;;32.50;43.20;;;;;;5012648;28;20352;-75
2022/08/12 11:35:35;;;;;;;7.32;3.20;;;32.50;43.00;;;;;;5011124;28;20041;-77
2022/08/12 11:38:01;;;;;;;5.45;3.10;;;32.50;42.80;;;;;;5012439;28;20483;-77
2022/08/12 11:40:28;;;;;;;8.90;3.20;;;32.60;42.60;;;;;;5012803;28;20395;-76
2022/08/12 11:42:54;;;;;;;5.72;3.25;;;32.60;42.80;;;;;;5012416;28;20045;-77
2022/08/12 11:45:20;;;;;;;6.00;3.22;;;32.60;42.70;;;;;;5012374;28;20325;-76
2022/08/12 11:47:46;;;;;;;5.57;3.00;;;32.60;42.50;;;;;;5012430;28;20037;-78
2022/08/12 11:50:12;;;;;;;4.60;3.15;;;32.50;42.00;;;;;;5012369;28;20026;-79
2022/08/12 11:52:38;;;;;;;7.25;3.03;;;32.60;41.40;;;;;;5012279;28;20014;-73
2022/08/12 11:55:04;;;;;;;6.47;3.03;;;32.70;41.40;;;;;;5012151;28;20052;-74
2022/08/12 11:57:30;;;;;;;4.68;2.92;;;32.80;41.30;;;;;;5027507;28;20064;-75
2022/08/12 11:59:56;;;;;;;7.70;2.97;;;32.90;40.90;;;;;;5015732;28;20461;-76
2022/08/12 12:02:22;;;;;;;5.97;3.20;;;33.00;40.70;;;;;;5015792;28;20056;-74
2022/08/12 12:04:49;;;;;;;6.65;3.10;;;33.00;40.40;;;;;;5015631;28;20030;-75
2022/08/12 12:07:15;;;;;;;9.60;3.58;;;33.10;40.20;;;;;;5016058;28;20046;-77
2022/08/12 12:09:41;;;;;;;7.22;2.97;;;33.20;40.50;;;;;;5015781;28;20380;-78
2022/08/12 12:12:07;;;;;;;4.85;2.97;;;33.10;40.30;;;;;;5015878;28;20018;-77
2022/08/12 12:14:32;;;;;;;6.28;3.63;;;33.20;40.10;;;;;;5015743;28;20026;-75
2022/08/12 12:16:58;;;;;;;6.47;3.33;;;33.20;40.00;;;;;;5030554;28;20052;-78
2022/08/12 12:19:24;;;;;;;7.30;2.90;;;33.10;40.00;;;;;;5015542;28;20428;-78
2022/08/12 12:21:50;;;;;;;6.60;3.08;;;33.10;40.20;;;;;;5015626;28;20029;-75
2022/08/12 12:24:19;;;;;;;8.60;2.88;;;33.00;40.00;;;;;;5030101;28;20022;-75
2022/08/12 12:26:44;;;;;;;8.48;2.90;;;33.10;39.70;;;;;;5015358;28;20029;-77
2022/08/12 12:29:10;;;;;;;5.25;2.60;;;33.10;38.90;;;;;;5015276;28;20391;-74
2022/08/12 12:31:36;;;;;;;5.80;2.60;;;33.20;38.80;;;;;;5015053;28;20033;-76
2022/08/12 12:34:01;;;;;;;5.82;2.90;;;33.20;38.50;;;;;;5015307;28;20026;-76
2022/08/12 12:36:27;;;;;;;6.35;2.78;;;33.20;38.30;;;;;;5015078;28;20491;-77
2022/08/12 12:38:53;;;;;;;8.68;3.15;;;33.10;37.60;;;;;;5015119;28;20037;-75
2022/08/12 12:41:18;;;;;;;5.00;2.53;;;33.20;37.80;;;;;;5015117;28;20053;-76
2022/08/12 12:43:44;;;;;;;6.78;2.70;;;33.30;37.50;;;;;;5015179;28;20101;-77
2022/08/12 12:46:10;;;;;;;7.07;2.60;;;33.30;36.90;;;;;;5014781;28;20136;-74
2022/08/12 12:48:36;;;;;;;8.43;3.55;;;33.40;36.70;;;;;;5015087;28;20025;-74
2022/08/12 12:51:15;;;;;;;10.05;4.22;;;33.50;39.50;;;;;;5031401;28;20125;-75
2022/08/12 12:53:43;;;;;;;10.75;4.05;;;33.50;44.00;;;;;;5015815;28;20561;-73
2022/08/12 12:56:16;;;;;;;8.27;3.80;;;33.40;44.80;;;;;;5014864;28;20053;-77
2022/08/12 12:58:42;;;;;;;10.65;3.83;;;33.40;46.10;;;;;;5014612;28;20076;-76
2022/08/12 13:01:09;;;;;;;9.73;3.78;;;33.40;46.30;;;;;;5014483;28;20041;-77
2022/08/12 13:03:34;;;;;;;10.32;4.10;;;33.40;46.50;;;;;;5014840;28;20050;-74
2022/08/12 13:06:01;;;;;;;7.53;3.72;;;33.40;46.70;;;;;;5014672;28;20060;-75
2022/08/12 13:08:29;;;;;;;8.77;3.90;;;33.40;46.70;;;;;;5014118;28;20072;-73
2022/08/12 13:11:02;;;;;;;8.88;3.30;;;33.30;47.00;;;;;;5014731;28;20022;-74
2022/08/12 13:13:33;;;;;;;;;;;33.30;47.10;;;;;;5015125;28;20034;-74
2022/08/12 13:16:00;;;;;;;8.52;3.50;;;33.30;47.20;;;;;;5014839;28;19967;-74
2022/08/12 13:18:40;;;;;;;7.95;3.65;;;33.30;47.20;;;;;;5014477;28;20034;-75
2022/08/12 13:21:08;;;;;;;6.72;3.45;;;33.30;47.70;;;;;;5014242;28;20038;-74
2022/08/12 13:23:34;;;;;;;8.35;3.67;;;33.40;47.60;;;;;;5014052;28;20430;-75
2022/08/12 13:26:00;;;;;;;7.20;3.50;;;33.50;47.30;;;;;;5013333;28;20014;-73
2022/08/12 13:28:28;;;;;;;13.70;4.45;;;33.50;46.90;;;;;;5014212;28;20045;-73
2022/08/12 13:30:58;;;;;;;8.68;3.97;;;33.50;45.90;;;;;;5013816;28;20091;-73
2022/08/12 13:33:27;;;;;;;7.63;4.05;;;33.40;45.50;;;;;;5013458;28;20049;-73
2022/08/12 13:36:02;;;;;;;9.43;3.55;;;33.40;45.70;;;;;;5012918;28;20538;-73
2022/08/12 13:38:40;;;;;;;7.35;3.30;;;33.40;46.00;;;;;;5012607;28;20424;-73
2022/08/12 13:41:31;;;;;;;8.57;3.30;;;33.40;46.30;;;;;;5013617;28;20036;-74
2022/08/12 13:43:56;;;;;;;6.57;3.33;;;33.40;46.50;;;;;;5013547;28;20080;-75
2022/08/12 13:46:24;;;;;;;7.85;2.85;;;33.40;46.70;;;;;;5012523;28;20034;-77
2022/08/12 13:48:50;;;;;;;8.05;3.03;;;33.30;46.60;;;;;;5013771;28;20041;-74
2022/08/12 13:51:15;;;;;;;7.20;3.30;;;33.50;46.70;;;;;;5013801;28;20026;-77
2022/08/12 13:53:41;;;;;;;7.32;2.80;;;33.60;46.50;;;;;;5013905;28;20104;-76
2022/08/12 13:56:10;;;;;;;7.47;2.95;;;33.60;46.40;;;;;;5013555;28;20050;-74
2022/08/12 13:58:47;;;;;;;5.78;2.85;;;33.70;46.40;;;;;;5013418;28;20045;-75
2022/08/12 14:01:13;;;;;;;7.20;3.28;;;33.50;46.70;;;;;;5013604;28;20041;-74
2022/08/12 14:03:38;;;;;;;5.75;2.88;;;33.50;47.20;;;;;;5013420;28;20088;-75
2022/08/12 14:06:04;;;;;;;7.28;3.42;;;33.20;47.50;;;;;;5013569;28;20037;-77
2022/08/12 14:08:30;;;;;;;5.57;2.97;;;33.10;47.60;;;;;;5013664;28;20438;-77
2022/08/12 14:10:56;;;;;;;6.95;3.55;;;32.90;48.00;;;;;;5013496;28;20029;-74
2022/08/12 14:13:28;;;;;;;9.55;3.70;;;32.90;48.10;;;;;;5013548;28;20113;-75
2022/08/12 14:15:59;;;;;;;8.38;3.35;;;32.80;47.90;;;;;;5013140;28;20026;-73
2022/08/12 14:18:31;;;;;;;7.80;3.30;;;32.70;48.40;;;;;;5028491;28;20438;-75
2022/08/12 14:21:00;;;;;;;10.77;3.50;;;32.70;48.60;;;;;;5012352;28;20044;-73
2022/08/12 14:23:34;;;;;;;10.18;3.25;;;32.70;48.80;;;;;;5013343;28;20610;-76
2022/08/12 14:26:04;;;;;;;7.47;3.03;;;32.70;49.00;;;;;;5013231;28;20388;-73
2022/08/12 14:28:33;;;;;;;7.40;2.92;;;32.60;48.90;;;;;;5013356;28;20084;-75
2022/08/12 14:31:01;;;;;;;9.30;3.10;;;32.70;49.10;;;;;;5013045;28;20376;-73
2022/08/12 14:33:32;;;;;;;8.10;3.10;;;32.80;48.90;;;;;;5028076;28;20396;-72
2022/08/12 14:35:59;;;;;;;6.25;3.15;;;32.80;48.60;;;;;;5013104;28;20048;-75
2022/08/12 14:38:29;;;;;;;8.70;3.03;;;32.80;49.00;;;;;;5013073;28;20364;-75
2022/08/12 14:41:01;;;;;;;7.50;3.30;;;32.90;49.00;;;;;;5028108;28;20029;-73
2022/08/12 14:43:32;;;;;;;6.85;3.10;;;32.90;49.00;;;;;;5013296;28;20022;-76